Rocha, Uruguay

3:56 PM UYST en Octubre 20, 2014 (GMT -0200)
Capitan Curbelo International | Change Station
CLOSE
Current Station
Aeropuerto
Location: Capitan Corbeta,
Altura: 98 ft
Estaciones meteorológicas cercanas

Alt 98 ft 34.86 °S, 55.09 °W | Updated 56 minutes ago

Scattered Clouds
Nubes dispersas
64 ° F
Sensación térmica 64 ° F
N
12
Viento Variable Viento desde Sur

Hoy
Alta -- | Baja -- ° F
--% Posibilidad de precipitaciones
Ayer
Alta -- | Baja -- ° F
Precip. -- pul
6:48 AM 7:55 PM
Creciente menguante, 10% visible
Presión 30.15 pul
Visibilidad 6.2 Millas
Nubes Nubes dispersas 2000 ft
Nubes dispersas 20000 ft
Punto de rocío 54 ° F
Humedad 68%
Precipitaciones 0.00 pul
Espesor de la nieve No disponible.
UV 8 de una escala de 12
Polen No disponible.
Calidad del aire No disponible.
Flu Activity No disponible.
METAR SULS 201700Z 19010KT 9999 SCT020 SCT200 18/12 Q1021

More Conditions Fewer Conditions

Presión 30.15 pul
Visibilidad 6.2 Millas
Nubes Nubes dispersas 2000 ft
Nubes dispersas 20000 ft
Punto de rocío 54 ° F
Humedad 68%
Precipitaciones 0.00 pul
Espesor de la nieve No disponible.
UV 8 de una escala de 12
Polen No disponible.
Calidad del aire No disponible.
Flu Activity No disponible.
METAR SULS 201700Z 19010KT 9999 SCT020 SCT200 18/12 Q1021

More Conditions Fewer Conditions

10-Day Weather Forecast

Almanac

Astronomía

Oct. 20, 2014 Salida Puesta
Hora real 6:48 AM UYST 7:55 PM UYST
Crepúsculo civil 6:23 AM UYST 8:21 PM UYST
Crepúsculo náutico 5:52 AM UYST 8:52 PM UYST
Crepúsculo astronómico 5:20 AM UYST 9:24 PM UYST
Luna 4:54 AM UYST 5:03 PM UYST
Horas de luz 13h 58m
Horas de luz
13h 06m
Tomorrow will be 2m 3s longer.
Creciente menguante, 10% of the Moon is Illuminated
Hoy
Creciente menguante
Oct 23
Nueva
Oct 30
Cuarto creciente
Nov 6
Luna llena
Nov 14
Cuarto menguante

Extremos de hoy

Máximos del país Bajas del país

Community

WunderPhotos

Upload Photos

1,763,446 ¡fotos cargadas!

WunderBlogs® & News

Nearby

Calidad del aire

Not available.

Grosos de nieve

Not available.

Actividad de terremotos

Ciudad Distance Mag. Tiempo y dato
No hay informes recientes de la actividad sísmica.
Magnitud mínima muestra es 2,5.

Temperaturas de aguas costeras

Lugar Temperatura
Sin partes meteorológicos de las estaciones

Estaciones meteorológicas cercanas